Convoy, Ohio
Current Conditions -  °F | °C
As of 12:54 PM on Friday 21 Nov 2014 (Local Time) from KFWA Reporting Station
Few Clouds Few Clouds  
Wind Chill: 17°   Ceiling: Unl
Heat Index: 25°   Visibility: 10mi
Dew Point: 12°   Wind: 7mph
Humidity: 58%   Direction: 170°S
Pressure: 30.49"   Gusts: NA
Location:  40.92°N, 84.7°W
Report Text: KFWA 211754Z 17006KT 10SM FEW040 M04/M11 A3049 RMK AO2 SLP338 T10391111 11033 21128 50003
Loading
Personal Weather Stations






























Interactive Weather Map New forecast layout! Learn more

10-Day Weather Forecast

Advertisements
Track Severe Weather on mobile